Ghadamis, Libya
Current Conditions -  °F | °C
As of 11:00 AM on Sunday 26 Oct 2014 (Local Time) from DAUZ Reporting Station
Clear Clear  
Wind Chill: 66°   Ceiling: Unl
Heat Index: 66°   Visibility: 6mi
Dew Point: 37°   Wind: 13mph
Humidity: 35%   Direction: 80°E
Pressure: 30.15"   Gusts: NA
Location:  30.13°N, 9.5°E
Report Text: DAUZ 260800Z 08011KT CAVOK 19/03 Q1021
Loading
Personal Weather Stations






























Interactive Weather Map
Tropical Storm Tracking
New forecast layout! Learn more

10-Day Weather Forecast

Advertisements
Track Severe Weather on mobile